createdAt,value
2018-03-09T00:01:59.026Z,76.10
2018-03-09T00:04:26.029Z,76.40
2018-03-09T00:06:53.038Z,76.20
2018-03-09T00:09:20.063Z,76.90
2018-03-09T00:11:47.838Z,77.40
2018-03-09T00:14:14.850Z,77.30
2018-03-09T00:16:41.842Z,77.40
2018-03-09T00:19:08.847Z,77.50
2018-03-09T00:21:36.613Z,77.40
2018-03-09T00:24:04.390Z,77.40
2018-03-09T00:26:31.391Z,77.40
2018-03-09T00:28:58.407Z,77.30
2018-03-09T00:31:25.412Z,77.00
2018-03-09T00:33:53.187Z,78.10
2018-03-09T00:36:20.956Z,77.60
2018-03-09T00:38:48.742Z,77.60
2018-03-09T00:41:15.742Z,77.60
2018-03-09T00:43:42.755Z,77.90
2018-03-09T00:46:09.757Z,77.60
2018-03-09T00:48:37.524Z,78.20
2018-03-09T00:51:10.379Z,78.20
2018-03-09T00:53:37.394Z,77.60
2018-03-09T00:56:05.167Z,78.00
2018-03-09T00:58:33.691Z,78.40
2018-03-09T01:01:01.440Z,77.40
2018-03-09T01:03:29.241Z,77.30
2018-03-09T01:05:56.242Z,77.10
2018-03-09T01:08:23.258Z,77.70
2018-03-09T01:10:50.262Z,78.10
2018-03-09T01:13:17.260Z,77.80
2018-03-09T01:15:44.253Z,78.30
2018-03-09T01:18:11.267Z,78.50
2018-03-09T01:20:38.326Z,78.70
2018-03-09T01:23:05.294Z,78.70
2018-03-09T01:25:32.306Z,79.00
2018-03-09T01:27:59.323Z,79.20
2018-03-09T01:30:26.325Z,79.50
2018-03-09T01:32:53.339Z,79.80
2018-03-09T01:35:20.353Z,79.90
2018-03-09T01:37:47.359Z,79.60
2018-03-09T01:40:14.377Z,80.00
2018-03-09T01:42:41.375Z,79.80
2018-03-09T01:45:09.175Z,80.00
2018-03-09T01:47:36.179Z,79.80
2018-03-09T01:50:03.189Z,80.30
2018-03-09T01:52:36.883Z,80.40
2018-03-09T01:55:03.887Z,79.70
2018-03-09T01:57:30.878Z,80.00
2018-03-09T01:59:58.650Z,80.60
2018-03-09T02:02:30.141Z,80.20
2018-03-09T02:04:57.150Z,80.10
2018-03-09T02:07:24.907Z,79.80
2018-03-09T02:09:52.707Z,80.10
2018-03-09T02:12:19.715Z,80.10
2018-03-09T02:14:47.483Z,80.20
2018-03-09T02:17:15.262Z,80.20
2018-03-09T02:19:42.274Z,80.20
2018-03-09T02:22:09.316Z,80.00
2018-03-09T02:24:36.314Z,80.10
2018-03-09T02:27:03.318Z,79.90
2018-03-09T02:29:30.318Z,80.00
2018-03-09T02:31:57.326Z,79.80
2018-03-09T02:34:25.120Z,79.70
2018-03-09T02:36:52.128Z,79.50
2018-03-09T02:39:19.902Z,79.30
2018-03-09T02:41:47.685Z,79.10
2018-03-09T02:44:14.688Z,79.90
2018-03-09T02:46:41.702Z,79.00
2018-03-09T02:49:08.698Z,79.10
2018-03-09T02:51:36.480Z,79.40
2018-03-09T02:54:03.480Z,79.40
2018-03-09T02:56:30.483Z,79.60
2018-03-09T02:58:57.494Z,79.80
2018-03-09T03:01:25.264Z,80.20
2018-03-09T03:03:53.027Z,80.30
2018-03-09T03:06:20.806Z,80.70
2018-03-09T03:08:47.813Z,80.70
2018-03-09T03:11:14.814Z,80.50
2018-03-09T03:13:41.809Z,80.60
2018-03-09T03:16:08.835Z,80.50
2018-03-09T03:18:35.846Z,80.80
2018-03-09T03:21:02.849Z,80.90
2018-03-09T03:23:29.864Z,80.50
2018-03-09T03:25:56.864Z,80.70
2018-03-09T03:28:24.637Z,80.90
2018-03-09T03:30:51.628Z,80.90
2018-03-09T03:33:18.638Z,81.40
2018-03-09T03:35:45.643Z,81.80
2018-03-09T03:38:13.409Z,82.40
2018-03-09T03:40:41.171Z,82.80
2018-03-09T03:43:08.942Z,83.00
2018-03-09T03:45:36.707Z,82.90
2018-03-09T03:48:04.474Z,82.80
2018-03-09T03:50:31.487Z,82.80
2018-03-09T03:52:58.491Z,82.60
2018-03-09T03:55:25.504Z,82.30
2018-03-09T03:57:53.266Z,81.70
2018-03-09T04:00:21.026Z,81.60
2018-03-09T04:02:48.038Z,81.70
2018-03-09T04:05:15.034Z,81.60
2018-03-09T04:07:42.050Z,81.50
2018-03-09T04:10:09.042Z,81.70
2018-03-09T04:12:36.042Z,81.60
2018-03-09T04:15:03.039Z,81.70
2018-03-09T04:17:30.048Z,81.70
2018-03-09T04:19:57.818Z,82.10
2018-03-09T04:22:25.590Z,82.20
2018-03-09T04:24:53.341Z,81.90
2018-03-09T04:27:20.356Z,81.80
2018-03-09T04:29:47.365Z,81.70
2018-03-09T04:32:14.370Z,81.50
2018-03-09T04:34:42.152Z,81.40
2018-03-09T04:37:09.923Z,81.60
2018-03-09T04:39:36.927Z,81.50
2018-03-09T04:42:03.927Z,81.50
2018-03-09T04:44:30.936Z,81.80
2018-03-09T04:46:57.946Z,82.10
2018-03-09T04:49:24.952Z,82.10
2018-03-09T04:51:51.956Z,82.20
2018-03-09T04:54:18.956Z,82.20
2018-03-09T04:56:45.968Z,82.10
2018-03-09T04:59:13.751Z,82.70
2018-03-09T05:01:40.755Z,82.60
2018-03-09T05:04:07.767Z,82.50
2018-03-09T05:06:34.763Z,82.50
2018-03-09T05:09:02.540Z,82.70
2018-03-09T05:11:30.303Z,82.40
2018-03-09T05:13:58.079Z,82.20
2018-03-09T05:16:25.070Z,82.40
2018-03-09T05:18:52.084Z,82.20
2018-03-09T05:21:19.094Z,82.10
2018-03-09T05:23:46.870Z,82.00
2018-03-09T05:26:14.631Z,81.80
2018-03-09T05:28:42.406Z,81.70
2018-03-09T05:31:09.411Z,81.50
2018-03-09T05:33:36.430Z,81.40
2018-03-09T05:36:03.436Z,81.50
2018-03-09T05:38:30.433Z,81.50
2018-03-09T05:40:57.435Z,81.70
2018-03-09T05:43:24.486Z,81.60
2018-03-09T05:45:51.439Z,81.70
2018-03-09T05:48:18.442Z,81.80
2018-03-09T05:50:45.459Z,81.90
2018-03-09T05:53:12.451Z,81.70
2018-03-09T05:55:40.219Z,81.70
2018-03-09T05:58:07.257Z,81.70
2018-03-09T06:00:34.251Z,81.80
2018-03-09T06:03:01.261Z,81.60
2018-03-09T06:05:28.276Z,81.40
2018-03-09T06:07:55.279Z,81.20
2018-03-09T06:10:22.286Z,82.40
2018-03-09T06:12:50.046Z,82.40
2018-03-09T06:15:17.814Z,82.10
2018-03-09T06:17:45.593Z,82.30
2018-03-09T06:20:12.611Z,82.30
2018-03-09T06:22:40.384Z,82.40
2018-03-09T06:25:08.172Z,81.80
2018-03-09T06:27:35.175Z,82.00
2018-03-09T06:30:02.196Z,81.20
2018-03-09T06:32:29.219Z,83.50
2018-03-09T06:34:56.222Z,78.20
2018-03-09T06:37:24.018Z,80.40
2018-03-09T06:40:07.737Z,80.40
2018-03-09T06:42:35.508Z,80.10
2018-03-09T06:45:02.568Z,80.00
2018-03-09T06:47:29.579Z,80.00
2018-03-09T06:49:56.595Z,79.50
2018-03-09T06:52:23.657Z,80.30
2018-03-09T06:54:50.616Z,79.60
2018-03-09T06:57:18.387Z,79.10
2018-03-09T06:59:46.156Z,79.00
2018-03-09T07:02:13.933Z,78.00
2018-03-09T07:04:40.935Z,78.00
2018-03-09T07:07:07.936Z,77.80
2018-03-09T07:09:34.951Z,77.70
2018-03-09T07:12:02.732Z,77.70
2018-03-09T07:14:29.743Z,77.70
2018-03-09T07:16:56.743Z,77.60
2018-03-09T07:19:23.762Z,77.40
2018-03-09T07:21:51.522Z,77.30
2018-03-09T07:24:19.288Z,77.30
2018-03-09T07:26:47.068Z,77.30
2018-03-09T07:29:14.086Z,77.50
2018-03-09T07:31:41.859Z,77.10
2018-03-09T07:34:09.641Z,77.10
2018-03-09T07:36:36.651Z,77.40
2018-03-09T07:39:04.419Z,77.40
2018-03-09T07:41:32.202Z,76.70
2018-03-09T07:43:59.220Z,76.90
2018-03-09T07:46:26.274Z,76.80
2018-03-09T07:48:53.264Z,77.10
2018-03-09T07:51:20.267Z,76.80
2018-03-09T07:53:48.043Z,77.00
2018-03-09T07:56:15.834Z,76.60
2018-03-09T07:58:43.627Z,76.70
2018-03-09T08:01:10.645Z,76.90
2018-03-09T08:03:37.674Z,76.50
2018-03-09T08:06:04.695Z,75.90
2018-03-09T08:08:32.484Z,75.60
2018-03-09T08:10:59.493Z,75.60
2018-03-09T08:13:27.293Z,74.90
2018-03-09T08:15:54.302Z,75.40
2018-03-09T08:18:21.341Z,75.30
2018-03-09T08:20:48.359Z,75.00
2018-03-09T08:23:15.382Z,75.10
2018-03-09T08:25:42.398Z,75.10
2018-03-09T08:28:10.199Z,75.20
2018-03-09T08:30:37.217Z,75.10
2018-03-09T08:33:05.010Z,74.70
2018-03-09T08:35:32.043Z,74.60
2018-03-09T08:37:59.078Z,74.10
2018-03-09T08:40:26.884Z,72.80
2018-03-09T08:42:53.894Z,72.80
2018-03-09T08:45:21.681Z,73.10
2018-03-09T08:47:48.702Z,73.10
2018-03-09T08:50:16.490Z,71.50
2018-03-09T08:52:43.510Z,71.40
2018-03-09T08:55:11.299Z,71.50
2018-03-09T08:57:38.319Z,71.50
2018-03-09T09:00:06.105Z,71.20
2018-03-09T09:02:33.131Z,71.20
2018-03-09T09:05:00.908Z,70.60
2018-03-09T09:07:27.930Z,70.60
2018-03-09T09:09:55.721Z,70.00
2018-03-09T09:12:22.738Z,69.90
2018-03-09T09:14:50.535Z,68.50
2018-03-09T09:17:17.549Z,68.50
2018-03-09T09:19:45.369Z,66.60
2018-03-09T09:22:12.372Z,66.60
2018-03-09T09:24:40.161Z,64.90
2018-03-09T09:27:07.178Z,64.90
2018-03-09T09:29:34.966Z,63.40
2018-03-09T09:32:01.982Z,63.40
2018-03-09T09:34:29.778Z,63.10
2018-03-09T09:36:56.806Z,63.00
2018-03-09T09:39:23.826Z,63.40
2018-03-09T09:41:51.670Z,63.60
2018-03-09T09:44:18.657Z,63.60
2018-03-09T09:46:46.442Z,62.30
2018-03-09T09:49:13.473Z,62.30
2018-03-09T09:51:40.498Z,59.80
2018-03-09T09:54:08.307Z,57.70
2018-03-09T09:56:35.331Z,57.60
2018-03-09T09:59:02.368Z,57.10
2018-03-09T10:01:29.389Z,56.40
2018-03-09T10:03:56.421Z,56.20
2018-03-09T10:06:23.445Z,56.60
2018-03-09T10:08:51.230Z,55.10
2018-03-09T10:11:18.263Z,55.10
2018-03-09T10:13:45.285Z,55.90
2018-03-09T10:16:12.321Z,54.90
2018-03-09T10:18:39.358Z,54.70
2018-03-09T10:21:07.172Z,55.30
2018-03-09T10:23:34.221Z,55.30
2018-03-09T10:26:01.258Z,55.70
2018-03-09T10:28:28.287Z,55.70
2018-03-09T10:30:55.312Z,55.50
2018-03-09T10:33:22.348Z,55.90
2018-03-09T10:35:50.143Z,55.80
2018-03-09T10:38:17.165Z,55.60
2018-03-09T10:40:44.966Z,53.90
2018-03-09T10:43:11.994Z,53.80
2018-03-09T10:45:39.028Z,53.40
2018-03-09T10:48:06.056Z,53.10
2018-03-09T10:50:33.858Z,53.40
2018-03-09T10:53:00.877Z,53.30
2018-03-09T10:55:27.902Z,52.20
2018-03-09T10:57:55.692Z,52.40
2018-03-09T11:00:22.757Z,52.40
2018-03-09T11:02:50.522Z,52.60
2018-03-09T11:05:17.543Z,52.60
2018-03-09T11:07:44.589Z,52.00
2018-03-09T11:10:12.373Z,51.80
2018-03-09T11:12:39.407Z,51.80
2018-03-09T11:15:07.195Z,51.20
2018-03-09T11:17:34.234Z,51.10
2018-03-09T11:20:01.254Z,51.10
2018-03-09T11:22:29.042Z,50.40
2018-03-09T11:24:56.066Z,50.40
2018-03-09T11:27:23.866Z,49.10
2018-03-09T11:29:50.882Z,49.00
2018-03-09T11:32:17.910Z,49.20
2018-03-09T11:34:45.708Z,49.30
2018-03-09T11:37:12.736Z,49.30
2018-03-09T11:39:40.516Z,49.50
2018-03-09T11:42:07.545Z,49.50
2018-03-09T11:44:34.572Z,49.00
2018-03-09T11:47:02.372Z,48.80
2018-03-09T11:49:29.395Z,48.80
2018-03-09T11:51:57.210Z,49.10
2018-03-09T11:54:24.230Z,49.10
2018-03-09T11:56:51.258Z,48.70
2018-03-09T11:59:18.286Z,49.20
2018-03-09T12:01:46.084Z,49.30
2018-03-09T12:04:13.103Z,49.20
2018-03-09T12:06:40.130Z,48.90
2018-03-09T12:09:07.177Z,49.60
2018-03-09T12:11:34.210Z,50.30
2018-03-09T12:14:01.244Z,50.50
2018-03-09T12:16:28.263Z,51.70
2018-03-09T12:18:55.300Z,51.60
2018-03-09T12:21:22.324Z,52.10
2018-03-09T12:23:50.134Z,52.50
2018-03-09T12:26:17.164Z,52.50
2018-03-09T12:28:44.190Z,52.60
2018-03-09T12:31:12.004Z,52.50
2018-03-09T12:33:39.048Z,52.50
2018-03-09T12:36:06.085Z,53.00
2018-03-09T12:38:33.113Z,53.00
2018-03-09T12:41:00.138Z,53.80
2018-03-09T12:43:27.929Z,53.00
2018-03-09T12:45:54.947Z,53.00
2018-03-09T12:48:22.734Z,52.60
2018-03-09T12:50:49.750Z,52.60
2018-03-09T12:53:17.552Z,51.80
2018-03-09T12:55:44.570Z,51.80
2018-03-09T12:58:12.354Z,51.60
2018-03-09T13:00:39.373Z,51.50
2018-03-09T13:03:07.175Z,49.90
2018-03-09T13:05:34.205Z,49.90
2018-03-09T13:08:01.243Z,50.60
2018-03-09T13:10:28.269Z,49.70
2018-03-09T13:12:56.062Z,48.80
2018-03-09T13:15:23.114Z,48.80
2018-03-09T13:17:51.048Z,48.30
2018-03-09T13:20:18.832Z,49.00
2018-03-09T13:22:45.840Z,48.90
2018-03-09T13:25:12.868Z,49.60
2018-03-09T13:27:39.882Z,48.70
2018-03-09T13:30:06.903Z,49.10
2018-03-09T13:32:34.685Z,48.50
2018-03-09T13:35:01.701Z,48.60
2018-03-09T13:37:29.486Z,49.00
2018-03-09T13:39:57.265Z,50.10
2018-03-09T13:42:24.274Z,50.10
2018-03-09T13:44:52.077Z,50.60
2018-03-09T13:47:19.095Z,50.60
2018-03-09T13:49:46.864Z,49.80
2018-03-09T13:52:13.883Z,49.80
2018-03-09T13:54:40.906Z,49.50
2018-03-09T13:57:07.906Z,48.70
2018-03-09T13:59:34.931Z,47.50
2018-03-09T14:02:02.716Z,49.70
2018-03-09T14:04:29.738Z,49.70
2018-03-09T14:06:57.515Z,50.20
2018-03-09T14:09:25.331Z,50.90
2018-03-09T14:11:52.339Z,50.80
2018-03-09T14:14:20.810Z,49.90
2018-03-09T14:16:47.844Z,51.00
2018-03-09T14:19:15.624Z,50.70
2018-03-09T14:21:42.631Z,50.60
2018-03-09T14:24:09.636Z,50.60
2018-03-09T14:26:36.644Z,50.70
2018-03-09T14:29:04.420Z,52.30
2018-03-09T14:31:32.198Z,52.50
2018-03-09T14:33:59.205Z,52.00
2018-03-09T14:36:26.228Z,51.70
2018-03-09T14:38:53.244Z,52.50
2018-03-09T14:41:20.251Z,51.80
2018-03-09T14:43:48.026Z,52.30
2018-03-09T14:46:15.800Z,51.40
2018-03-09T14:48:42.911Z,51.40
2018-03-09T14:51:09.919Z,51.50
2018-03-09T14:53:36.978Z,51.80
2018-03-09T14:56:04.014Z,50.40
2018-03-09T14:58:31.051Z,51.80
2018-03-09T15:00:58.179Z,51.90
2018-03-09T15:03:25.197Z,51.20
2018-03-09T15:05:52.212Z,51.90
2018-03-09T15:08:19.215Z,50.90
2018-03-09T15:10:46.228Z,51.00
2018-03-09T15:13:13.235Z,50.80
2018-03-09T15:15:40.253Z,51.50
2018-03-09T15:18:08.045Z,51.60
2018-03-09T15:20:35.053Z,51.60
2018-03-09T15:23:02.840Z,52.40
2018-03-09T15:25:30.058Z,51.80
2018-03-09T15:27:57.846Z,51.30
2018-03-09T15:30:24.873Z,51.30
2018-03-09T15:32:55.459Z,51.00
2018-03-09T15:35:26.412Z,51.00
2018-03-09T15:37:59.163Z,51.50
2018-03-09T15:40:26.186Z,48.90
2018-03-09T15:42:53.198Z,50.40
2018-03-09T15:45:20.245Z,51.00
2018-03-09T15:47:47.260Z,50.50
2018-03-09T15:50:14.271Z,49.30
2018-03-09T15:52:41.291Z,51.10
2018-03-09T15:55:09.076Z,50.50
2018-03-09T15:57:36.864Z,51.10
2018-03-09T16:00:03.883Z,51.10
2018-03-09T16:02:30.897Z,51.20
2018-03-09T16:04:57.949Z,51.50
2018-03-09T16:07:24.971Z,52.30
2018-03-09T16:09:51.988Z,52.10
2018-03-09T16:12:19.004Z,52.00
2018-03-09T16:14:46.773Z,51.90
2018-03-09T16:17:14.554Z,51.80
2018-03-09T16:19:41.573Z,51.80
2018-03-09T16:22:09.347Z,53.30
2018-03-09T16:24:37.136Z,53.50
2018-03-09T16:27:04.902Z,54.00
2018-03-09T16:29:31.913Z,53.90
2018-03-09T16:31:59.688Z,55.60
2018-03-09T16:34:26.719Z,55.60
2018-03-09T16:36:54.487Z,57.10
2018-03-09T16:39:22.274Z,57.50
2018-03-09T16:41:49.282Z,57.50
2018-03-09T16:44:16.307Z,58.10
2018-03-09T16:46:43.323Z,59.00
2018-03-09T16:49:10.348Z,58.90
2018-03-09T16:51:38.129Z,58.80
2018-03-09T16:54:05.160Z,58.80
2018-03-09T16:56:32.173Z,58.80
2018-03-09T16:58:59.959Z,59.50
2018-03-09T17:01:26.982Z,59.20
2018-03-09T17:03:54.002Z,58.90
2018-03-09T17:06:21.025Z,59.40
2018-03-09T17:08:48.041Z,60.70
2018-03-09T17:11:15.816Z,61.30
2018-03-09T17:13:42.838Z,61.20
2018-03-09T17:16:10.616Z,62.30
2018-03-09T17:18:38.404Z,62.90
2018-03-09T17:21:05.416Z,62.90
2018-03-09T17:23:33.195Z,63.70
2018-03-09T17:26:00.249Z,63.60
2018-03-09T17:28:27.996Z,64.00
2018-03-09T17:30:55.767Z,64.20
2018-03-09T17:33:22.796Z,64.20
2018-03-09T17:35:49.799Z,64.20
2018-03-09T17:38:16.819Z,64.50
2018-03-09T17:40:43.842Z,64.70
2018-03-09T17:43:11.620Z,65.70
2018-03-09T17:45:38.636Z,65.60
2018-03-09T17:48:06.471Z,65.70
2018-03-09T17:50:33.485Z,66.60
2018-03-09T17:53:00.502Z,65.90
2018-03-09T17:55:28.331Z,66.60
2018-03-09T17:57:55.334Z,65.90
2018-03-09T18:00:22.477Z,66.00
2018-03-09T18:02:50.464Z,65.90
2018-03-09T18:05:17.477Z,66.50
2018-03-09T18:07:45.251Z,66.30
2018-03-09T18:10:13.031Z,65.40
2018-03-09T18:12:40.027Z,65.30
2018-03-09T18:15:07.051Z,66.40
2018-03-09T18:17:34.083Z,66.10
2018-03-09T18:20:01.148Z,63.20
2018-03-09T18:22:28.164Z,63.30
2018-03-09T18:24:55.179Z,62.70
2018-03-09T18:27:22.949Z,63.80
2018-03-09T18:29:49.978Z,63.80
2018-03-09T18:32:16.977Z,62.60
2018-03-09T18:34:44.004Z,63.30
2018-03-09T18:37:11.034Z,63.80
2018-03-09T18:39:38.804Z,64.30
2018-03-09T18:42:06.606Z,64.80
2018-03-09T18:44:33.596Z,64.70
2018-03-09T18:47:01.386Z,65.30
2018-03-09T18:49:28.408Z,65.40
2018-03-09T18:51:56.176Z,64.90
2018-03-09T18:54:23.951Z,64.40
2018-03-09T18:56:51.735Z,64.30
2018-03-09T18:59:18.759Z,64.30
2018-03-09T19:01:46.531Z,64.50
2018-03-09T19:04:13.544Z,64.50
2018-03-09T19:06:40.562Z,64.30
2018-03-09T19:09:07.561Z,64.60
2018-03-09T19:11:34.574Z,64.90
2018-03-09T19:14:01.582Z,64.70
2018-03-09T19:16:28.603Z,65.50
2018-03-09T19:18:55.651Z,64.30
2018-03-09T19:21:22.665Z,64.70
2018-03-09T19:23:49.679Z,64.70
2018-03-09T19:26:16.699Z,64.60
2018-03-09T19:28:43.718Z,64.40
2018-03-09T19:31:11.520Z,65.20
2018-03-09T19:33:38.528Z,65.20
2018-03-09T19:36:06.321Z,65.60
2018-03-09T19:38:33.331Z,65.50
2018-03-09T19:41:01.103Z,65.20
2018-03-09T19:43:28.880Z,65.50
2018-03-09T19:45:56.646Z,65.50
2018-03-09T19:48:23.667Z,65.50
2018-03-09T19:50:51.444Z,65.70
2018-03-09T19:53:19.223Z,65.70
2018-03-09T19:55:46.233Z,65.70
2018-03-09T19:58:13.247Z,66.20
2018-03-09T20:00:40.304Z,66.50
2018-03-09T20:03:07.320Z,66.60
2018-03-09T20:05:35.095Z,66.60
2018-03-09T20:08:02.110Z,66.60
2018-03-09T20:10:29.872Z,66.80
2018-03-09T20:12:56.877Z,66.90
2018-03-09T20:15:23.886Z,66.90
2018-03-09T20:17:51.672Z,66.00
2018-03-09T20:20:18.680Z,66.00
2018-03-09T20:22:45.692Z,66.30
2018-03-09T20:25:12.708Z,66.00
2018-03-09T20:27:39.750Z,66.70
2018-03-09T20:30:06.735Z,68.40
2018-03-09T20:32:34.502Z,69.50
2018-03-09T20:35:02.291Z,68.20
2018-03-09T20:37:29.326Z,68.10
2018-03-09T20:39:56.293Z,69.40
2018-03-09T20:42:23.303Z,69.50
2018-03-09T20:44:51.071Z,67.50
2018-03-09T20:47:18.861Z,67.60
2018-03-09T20:49:45.901Z,67.50
2018-03-09T20:52:12.900Z,67.10
2018-03-09T20:54:39.940Z,65.80
2018-03-09T20:57:06.950Z,66.70
2018-03-09T20:59:34.019Z,67.50
2018-03-09T21:02:01.013Z,68.50
2018-03-09T21:04:28.791Z,70.20
2018-03-09T21:06:55.812Z,70.20
2018-03-09T21:09:22.828Z,70.60
2018-03-09T21:11:49.838Z,74.50
2018-03-09T21:14:16.851Z,72.40
2018-03-09T21:16:43.894Z,73.60
2018-03-09T21:19:10.906Z,75.50
2018-03-09T21:21:37.910Z,75.70
2018-03-09T21:24:04.919Z,77.80
2018-03-09T21:26:31.914Z,78.90
2018-03-09T21:28:58.925Z,81.50
2018-03-09T21:31:26.694Z,83.50
2018-03-09T21:33:54.467Z,82.20
2018-03-09T21:36:22.230Z,82.80
2018-03-09T21:38:50.007Z,84.70
2018-03-09T21:41:17.015Z,84.70
2018-03-09T21:43:44.032Z,86.80
2018-03-09T21:46:11.044Z,85.70
2018-03-09T21:48:38.172Z,85.70
2018-03-09T21:51:08.566Z,86.00
2018-03-09T21:53:35.618Z,85.90
2018-03-09T21:56:02.644Z,86.40
2018-03-09T21:58:29.664Z,87.90
2018-03-09T22:00:56.891Z,88.60
2018-03-09T22:03:23.955Z,89.30
2018-03-09T22:05:50.996Z,90.00
2018-03-09T22:08:18.004Z,88.90
2018-03-09T22:10:45.111Z,88.10
2018-03-09T22:13:12.121Z,88.10
2018-03-09T22:15:39.900Z,90.00
2018-03-09T22:18:06.982Z,90.00
2018-03-09T22:20:34.110Z,90.00
2018-03-09T22:23:01.123Z,90.00
2018-03-09T22:25:28.907Z,90.30
2018-03-09T22:27:56.455Z,90.20
2018-03-09T22:30:23.651Z,90.20
2018-03-09T22:32:50.664Z,90.30
2018-03-09T22:35:17.679Z,90.50
2018-03-09T22:37:44.704Z,90.40
2018-03-09T22:40:11.710Z,90.30
2018-03-09T22:42:38.716Z,91.00
2018-03-09T22:45:05.734Z,91.10
2018-03-09T22:47:32.724Z,91.10
2018-03-09T22:50:00.500Z,91.70
2018-03-09T22:52:27.503Z,91.70
2018-03-09T22:54:54.516Z,91.80
2018-03-09T22:57:21.519Z,91.60
2018-03-09T22:59:49.312Z,91.40
2018-03-09T23:02:16.307Z,91.40
2018-03-09T23:04:43.315Z,91.70
2018-03-09T23:07:10.327Z,91.60
2018-03-09T23:09:37.734Z,91.80
2018-03-09T23:12:04.740Z,91.90
2018-03-09T23:14:31.746Z,92.00
2018-03-09T23:16:58.775Z,92.80
2018-03-09T23:19:25.771Z,92.80
2018-03-09T23:21:52.782Z,92.70
2018-03-09T23:24:19.793Z,92.70
2018-03-09T23:26:46.800Z,92.80
2018-03-09T23:29:13.808Z,92.80
2018-03-09T23:31:40.814Z,92.80
2018-03-09T23:34:07.823Z,92.90
2018-03-09T23:36:35.643Z,92.70
2018-03-09T23:39:02.615Z,92.80
2018-03-09T23:41:29.631Z,92.50
2018-03-09T23:43:56.655Z,92.80
2018-03-09T23:46:23.678Z,92.60
2018-03-09T23:48:51.499Z,92.10
2018-03-09T23:51:18.570Z,92.10
2018-03-09T23:53:45.527Z,91.90
2018-03-09T23:56:13.362Z,91.10
2018-03-09T23:58:40.364Z,91.10
